Main page
METAR-TAF:

METAR-TAF

Airports :

Santiago de Compostela Airport

Santiago de Compostela, Spain

latitude: 42-54N, longitude: 008-26W, elevation: 370 m

Current weather observation

The report was made 20 minutes ago, at 07:30 UTC
Wind 6 kt from the East/Southeast, varying between East and Southeast
Temperature 12°C
Humidity 71%
Pressure 1016 hPa
Visibility 10 km or more
no clouds below 1500 m and no cumulonimbus

METAR: LEST 210730Z 11006KT 080V140 CAVOK 12/07 Q1016 NOSIG

Time: 09:50 (07:50 UTC)

Forecast

The report was made 2 hours and 50 minutes ago, at 05:00 UTC
Forecast valid from 21 at 06 UTC to 22 at 06 UTC
Wind 9 kt from the East/Northeast
Visibility 10 km or more
Few clouds at a height of 1000 ft

TAF: LEST 210500Z 2106/2206 07009KT 9999 FEW010 TX24/2115Z TN08/2206Z

Weather observations and forecasts of more than 4000 airports (METAR and TAF reports).

The available stations are represented by yellow and red dots on the map.

Hover mouse over dot to see the name of the station.

Then click to see weather observations and forecasts.

To change the map : click on the green buttons with a black cross to zoom in, on the green button with a dash to zoom out, or on the green arrows for adjacent maps.


METAR-TAF: